createdAt,value
2023-05-19T00:00:31.319Z,1.75
2023-05-19T00:05:10.665Z,1.75
2023-05-19T00:09:28.597Z,1.33
2023-05-19T00:13:49.962Z,1.50
2023-05-19T00:18:09.273Z,1.80
2023-05-19T00:22:26.939Z,1.70
2023-05-19T00:26:44.582Z,1.52
2023-05-19T00:31:02.964Z,1.63
2023-05-19T00:35:20.921Z,1.50
2023-05-19T00:39:38.613Z,1.80
2023-05-19T00:43:56.395Z,1.75
2023-05-19T00:48:14.100Z,1.50
2023-05-19T00:52:32.017Z,1.30
2023-05-19T00:56:50.190Z,1.35
2023-05-19T01:05:26.860Z,1.17
2023-05-19T01:14:03.064Z,1.30
2023-05-19T01:18:33.548Z,1.40
2023-05-19T01:23:41.288Z,1.52
2023-05-19T01:28:29.591Z,1.27
2023-05-19T01:32:48.966Z,1.80
2023-05-19T01:37:08.256Z,1.25
2023-05-19T01:41:28.820Z,1.48
2023-05-19T01:45:47.340Z,1.35
2023-05-19T01:50:05.400Z,1.60
2023-05-19T01:54:23.104Z,1.23
2023-05-19T01:58:53.545Z,1.25
2023-05-19T02:03:38.962Z,1.15
2023-05-19T02:08:20.871Z,1.42
2023-05-19T02:12:40.736Z,1.40
2023-05-19T02:16:59.632Z,1.75
2023-05-19T02:21:17.467Z,1.45
2023-05-19T02:25:35.313Z,1.48
2023-05-19T02:29:53.506Z,1.40
2023-05-19T02:34:11.387Z,1.40
2023-05-19T02:38:28.941Z,1.98
2023-05-19T02:42:46.451Z,1.20
2023-05-19T02:47:05.175Z,1.52
2023-05-19T02:51:22.701Z,1.65
2023-05-19T02:55:40.363Z,1.45
2023-05-19T02:59:57.961Z,1.35
2023-05-19T03:04:16.024Z,1.27
2023-05-19T03:08:33.529Z,1.45
2023-05-19T03:12:51.760Z,1.52
2023-05-19T03:21:29.076Z,1.63
2023-05-19T03:25:46.636Z,1.80
2023-05-19T03:30:07.583Z,1.70
2023-05-19T03:34:25.189Z,1.50
2023-05-19T03:38:43.589Z,2.10
2023-05-19T03:43:03.067Z,1.52
2023-05-19T03:47:21.179Z,1.60
2023-05-19T03:51:38.773Z,1.88
2023-05-19T03:55:57.424Z,1.42
2023-05-19T04:00:16.326Z,1.33
2023-05-19T04:04:34.089Z,1.35
2023-05-19T04:08:52.077Z,1.27
2023-05-19T04:13:10.271Z,1.85
2023-05-19T04:21:47.118Z,2.25
2023-05-19T04:30:26.146Z,1.73
2023-05-19T04:34:46.147Z,1.70
2023-05-19T04:39:07.689Z,1.80
2023-05-19T04:43:25.677Z,2.08
2023-05-19T04:47:43.253Z,1.55
2023-05-19T04:52:02.346Z,1.73
2023-05-19T04:56:19.844Z,1.85
2023-05-19T05:00:38.484Z,1.83
2023-05-19T05:04:56.989Z,1.88
2023-05-19T05:09:15.906Z,1.50
2023-05-19T05:13:34.482Z,2.60
2023-05-19T05:17:52.425Z,1.63
2023-05-19T05:22:12.376Z,1.95
2023-05-19T05:26:33.413Z,1.67
2023-05-19T05:30:52.299Z,2.22
2023-05-19T05:35:10.375Z,3.28
2023-05-19T05:39:29.255Z,2.10
2023-05-19T05:43:46.762Z,2.25
2023-05-19T05:48:05.514Z,2.67
2023-05-19T05:52:31.030Z,3.35
2023-05-19T05:56:49.464Z,3.17
2023-05-19T06:01:12.068Z,1.90
2023-05-19T06:05:29.694Z,2.13
2023-05-19T06:09:47.786Z,2.95
2023-05-19T06:14:05.498Z,1.98
2023-05-19T06:18:23.129Z,2.97
2023-05-19T06:22:42.363Z,2.28
2023-05-19T06:27:00.680Z,2.22
2023-05-19T06:31:18.704Z,1.73
2023-05-19T06:35:36.286Z,2.08
2023-05-19T06:39:55.293Z,2.35
2023-05-19T06:44:12.825Z,2.78
2023-05-19T06:52:49.772Z,2.97
2023-05-19T06:57:07.401Z,3.50
2023-05-19T07:01:27.148Z,3.03
2023-05-19T07:05:44.684Z,2.67
2023-05-19T07:10:03.175Z,3.13
2023-05-19T07:14:22.084Z,2.78
2023-05-19T07:18:39.694Z,2.22
2023-05-19T07:22:58.040Z,1.83
2023-05-19T07:27:16.432Z,2.55
2023-05-19T07:31:34.473Z,1.98
2023-05-19T07:35:52.825Z,2.80
2023-05-19T07:40:11.014Z,1.92
2023-05-19T07:48:46.730Z,1.95
2023-05-19T07:53:04.988Z,2.03
2023-05-19T07:57:23.750Z,2.03
2023-05-19T08:01:41.871Z,1.95
2023-05-19T08:05:59.689Z,1.70
2023-05-19T08:10:19.045Z,1.80
2023-05-19T08:14:37.639Z,1.83
2023-05-19T08:18:56.329Z,1.83
2023-05-19T08:23:14.511Z,3.42
2023-05-19T08:27:34.817Z,3.50
2023-05-19T08:31:53.394Z,1.95
2023-05-19T08:36:12.133Z,2.45
2023-05-19T08:40:32.121Z,2.55
2023-05-19T08:44:49.997Z,1.88
2023-05-19T08:49:13.683Z,2.17
2023-05-19T08:53:40.041Z,1.88
2023-05-19T08:57:57.658Z,2.60
2023-05-19T09:02:16.460Z,2.25
2023-05-19T09:06:36.106Z,1.95
2023-05-19T09:10:53.672Z,2.70
2023-05-19T09:15:16.300Z,2.33
2023-05-19T09:19:33.982Z,2.30
2023-05-19T09:23:51.831Z,2.53
2023-05-19T09:28:09.829Z,2.33
2023-05-19T09:32:28.924Z,2.10
2023-05-19T09:36:51.993Z,1.83
2023-05-19T09:41:10.864Z,2.38
2023-05-19T09:45:28.761Z,1.92
2023-05-19T09:49:49.524Z,2.42
2023-05-19T09:54:10.354Z,2.22
2023-05-19T09:58:35.664Z,2.17
2023-05-19T10:02:55.104Z,2.78
2023-05-19T10:07:14.858Z,2.03
2023-05-19T10:11:32.660Z,2.22
2023-05-19T10:20:18.028Z,2.05
2023-05-19T10:24:35.756Z,2.28
2023-05-19T10:28:53.677Z,2.30
2023-05-19T10:33:22.803Z,2.70
2023-05-19T10:38:25.446Z,2.80
2023-05-19T10:42:59.464Z,2.25
2023-05-19T10:47:25.867Z,2.60
2023-05-19T10:51:46.532Z,2.42
2023-05-19T10:56:04.484Z,2.30
2023-05-19T11:00:32.732Z,2.47
2023-05-19T11:04:52.164Z,2.22
2023-05-19T11:09:13.860Z,2.38
2023-05-19T11:13:32.288Z,2.35
2023-05-19T11:17:51.962Z,2.63
2023-05-19T11:22:14.437Z,2.88
2023-05-19T11:26:43.438Z,4.03
2023-05-19T11:31:02.946Z,3.42
2023-05-19T11:35:21.622Z,2.63
2023-05-19T11:39:41.249Z,2.22
2023-05-19T11:43:58.872Z,5.63
2023-05-19T11:48:17.632Z,2.72
2023-05-19T11:52:35.752Z,2.42
2023-05-19T12:01:11.486Z,2.10
2023-05-19T12:05:30.301Z,2.55
2023-05-19T12:09:48.630Z,2.20
2023-05-19T12:14:07.323Z,1.55
2023-05-19T12:18:31.774Z,2.65
2023-05-19T12:22:49.922Z,2.60
2023-05-19T12:27:20.998Z,2.10
2023-05-19T12:31:39.842Z,1.90
2023-05-19T12:35:57.925Z,3.50
2023-05-19T12:44:50.848Z,2.97
2023-05-19T12:49:09.534Z,2.58
2023-05-19T12:53:29.812Z,3.05
2023-05-19T12:57:55.010Z,2.38
2023-05-19T13:02:14.532Z,4.95
2023-05-19T13:06:33.303Z,3.05
2023-05-19T13:10:51.273Z,2.70
2023-05-19T13:15:09.740Z,1.85
2023-05-19T13:19:29.510Z,3.47
2023-05-19T13:23:47.816Z,3.00
2023-05-19T13:28:07.453Z,2.80
2023-05-19T13:32:25.057Z,2.35
2023-05-19T13:36:49.125Z,2.97
2023-05-19T13:41:10.675Z,2.33
2023-05-19T13:45:28.919Z,2.97
2023-05-19T13:54:06.302Z,3.25
2023-05-19T13:58:24.650Z,2.47
2023-05-19T14:02:43.070Z,2.72
2023-05-19T14:07:00.927Z,2.30
2023-05-19T14:11:23.282Z,3.03
2023-05-19T14:15:40.940Z,3.10
2023-05-19T14:20:00.837Z,2.45
2023-05-19T14:24:18.531Z,2.35
2023-05-19T14:28:36.650Z,2.42
2023-05-19T14:37:12.849Z,3.03
2023-05-19T14:41:30.402Z,3.92
2023-05-19T14:45:49.595Z,8.45
2023-05-19T14:50:08.214Z,6.40
2023-05-19T14:54:25.948Z,4.30
2023-05-19T14:58:44.679Z,15.38
2023-05-19T15:03:02.730Z,7.65
2023-05-19T15:07:21.841Z,4.10
2023-05-19T15:11:40.091Z,9.40
2023-05-19T15:16:12.327Z,9.00
2023-05-19T15:20:38.557Z,8.35
2023-05-19T15:24:56.844Z,10.02
2023-05-19T15:29:14.485Z,9.55
2023-05-19T15:33:32.643Z,8.38
2023-05-19T15:42:08.624Z,12.02
2023-05-19T15:46:26.671Z,18.75
2023-05-19T15:55:02.023Z,5.03
2023-05-19T15:59:23.665Z,9.70
2023-05-19T16:03:41.289Z,11.88
2023-05-19T16:07:59.771Z,9.38
2023-05-19T16:12:17.315Z,9.77
2023-05-19T16:16:35.795Z,6.95
2023-05-19T16:20:55.852Z,6.53
2023-05-19T16:25:14.743Z,5.80
2023-05-19T16:29:32.777Z,8.57
2023-05-19T16:33:50.755Z,9.10
2023-05-19T16:38:08.331Z,5.43
2023-05-19T16:42:26.772Z,5.75
2023-05-19T16:46:44.464Z,4.72
2023-05-19T16:51:03.252Z,6.53
2023-05-19T16:55:21.192Z,4.50
2023-05-19T16:59:43.435Z,16.55
2023-05-19T17:04:01.039Z,5.03
2023-05-19T17:08:19.773Z,8.38
2023-05-19T17:12:37.796Z,6.43
2023-05-19T17:16:56.322Z,6.72
2023-05-19T17:21:14.271Z,12.57
2023-05-19T17:25:35.519Z,8.63
2023-05-19T17:29:53.168Z,5.97
2023-05-19T17:38:29.987Z,7.72
2023-05-19T17:42:48.088Z,17.38
2023-05-19T17:47:08.347Z,10.77
2023-05-19T17:51:27.149Z,9.57
2023-05-19T17:55:51.931Z,35.63
2023-05-19T18:00:12.407Z,20.55
2023-05-19T18:04:31.362Z,18.45
2023-05-19T18:08:52.188Z,13.98
2023-05-19T18:13:14.188Z,6.82
2023-05-19T18:17:31.936Z,13.77
2023-05-19T18:26:14.704Z,22.27
2023-05-19T18:30:32.495Z,29.80
2023-05-19T18:34:50.848Z,31.23
2023-05-19T18:43:26.843Z,25.25
2023-05-19T18:47:44.491Z,31.05
2023-05-19T18:52:02.343Z,13.68
2023-05-19T18:56:26.332Z,13.52
2023-05-19T19:00:44.183Z,25.85
2023-05-19T19:05:04.214Z,34.28
2023-05-19T19:09:22.013Z,22.42
2023-05-19T19:13:40.275Z,12.45
2023-05-19T19:17:57.875Z,14.38
2023-05-19T19:22:17.108Z,11.10
2023-05-19T19:26:34.858Z,9.45
2023-05-19T19:30:58.948Z,15.57
2023-05-19T19:35:16.847Z,7.68
2023-05-19T19:39:36.563Z,9.13
2023-05-19T19:43:54.109Z,10.05
2023-05-19T19:48:12.721Z,8.73
2023-05-19T19:52:30.669Z,8.75
2023-05-19T19:56:48.879Z,9.57
2023-05-19T20:01:09.303Z,7.93
2023-05-19T20:05:28.271Z,9.23
2023-05-19T20:09:47.856Z,8.48
2023-05-19T20:14:05.992Z,9.63
2023-05-19T20:18:27.876Z,7.43
2023-05-19T20:22:46.621Z,10.07
2023-05-19T20:27:04.683Z,7.55
2023-05-19T20:31:24.125Z,8.57
2023-05-19T20:35:41.828Z,7.85
2023-05-19T20:39:59.999Z,7.15
2023-05-19T20:44:17.581Z,6.18
2023-05-19T20:48:35.792Z,7.15
2023-05-19T20:57:15.084Z,6.90
2023-05-19T21:01:32.726Z,7.55
2023-05-19T21:05:51.354Z,7.18
2023-05-19T21:10:10.155Z,6.82
2023-05-19T21:14:27.761Z,6.72
2023-05-19T21:18:45.930Z,7.28
2023-05-19T21:23:04.893Z,7.40
2023-05-19T21:27:24.867Z,8.10
2023-05-19T21:31:42.565Z,7.53
2023-05-19T21:36:00.647Z,8.18
2023-05-19T21:44:37.396Z,7.00
2023-05-19T21:48:55.110Z,7.90
2023-05-19T21:53:13.186Z,6.15
2023-05-19T21:57:32.234Z,7.30
2023-05-19T22:01:50.842Z,6.20
2023-05-19T22:06:08.493Z,6.85
2023-05-19T22:10:27.599Z,6.57
2023-05-19T22:14:45.945Z,7.15
2023-05-19T22:23:22.970Z,4.82
2023-05-19T22:31:58.764Z,5.57
2023-05-19T22:36:16.664Z,5.78
2023-05-19T22:40:35.642Z,5.80
2023-05-19T22:44:53.514Z,5.88
2023-05-19T22:49:11.826Z,6.20
2023-05-19T22:53:29.370Z,4.90
2023-05-19T22:57:47.283Z,5.43
2023-05-19T23:02:06.201Z,5.80
2023-05-19T23:06:24.128Z,5.25
2023-05-19T23:10:41.622Z,6.72
2023-05-19T23:15:00.423Z,5.85
2023-05-19T23:19:18.676Z,5.15
2023-05-19T23:27:55.846Z,6.28
2023-05-19T23:36:31.913Z,5.43
2023-05-19T23:40:49.482Z,6.35
2023-05-19T23:45:08.677Z,5.90
2023-05-19T23:49:26.372Z,6.13
2023-05-19T23:53:44.134Z,6.70
2023-05-19T23:58:02.327Z,6.70
